• °C
  • Pobieranie danych...
wx


PRINT OUT SECTION, show »

METAR EPBY 230830Z 30012KT 9999 SCT021 BKN025 08/01 Q1019=

METAR EPGD 230830Z 30019KT 9999 FEW045 07/M05 Q1016 =

METAR EPKK 230830Z 26008KT 9999 -SHRA SCT018TCU BKN030 06/02 Q1022 =

METAR EPKT 230830Z 28009KT 9999 -SHRA FEW011 SCT024CB BKN027 06/01
Q1021 =

METAR EPLB 230830Z 30011KT CAVOK 08/M01 Q1020 =

METAR EPLL 230830Z 26017KT 230V290 9999 SCT020TCU BKN026 07/01 Q1020
=

METAR EPMO 230830Z 26018KT 9999 FEW040 09/M00 Q1018 =

METAR EPPO 230830Z 29014KT 9999 BKN019 06/02 Q1022 =

METAR EPRA 230830Z 28010KT 9999 SCT035 08/M01 Q1020=

METAR EPRZ 230830Z 25011KT 9999 SCT030 07/00 Q1021 =

METAR EPSC 230830Z 30017KT 9999 SCT020 BKN024 08/03 Q1021 =

METAR EPSY 230830Z 27013KT 250V320 CAVOK 06/M01 Q1016=

METAR EPWA 230830Z 26013KT 9999 FEW031 08/M01 Q1019 NOSIG=

METAR EPWR 230830Z 31012KT 9999 SCT019CB SCT025 06/03 Q1023 =

METAR EPZG 230830Z 26009KT 230V300 9999 SCT020 BKN031 OVC041 07/03
Q1023 =
 METAR EPBY
Lokalizacja:EPBY Bydgoszcz
Czas:08:30 UTC
Średni kierunek wiatru:300 °
Średnia prędkość wiatru:12 węzłów
Widzialność:10 km i więcej
Pierwsza warstwa chmur:3/8 do 4/8, wysokość podstawy 2100 FT
Druga warstwa chmur:5/8 do 7/8, wysokość podstawy 2500 FT
Temperatura powietrza:8 °C
Temperatura punktu rosy:1 °C
Ciśnienie QNH:1019 hPa



IMGW-PIB Sites